Weather observations for the past three days for
Washington
Metric (Imperial)
Date Time (cdt) Wind (kph) Vis. (km) Weather Sky Cond. Temperature (ºC) Relative Humidity Wind Chill (°C) Heat Index (°C) Pressure Precipitation (cm)
Air Dwpt 6 hour altimeter (cm) sea level (mb) 1 hr 3 hr 6 hr
Max. Min.
06 11:15 NW 26 G 39 0.00 Fair CLR 11 -4 35% 76.28 0.0
06 10:55 NW 24 G 35 0.00 Fair CLR 11 -4 35% 76.28 0.0
06 10:35 NW 22 G 33 0.00 Fair CLR 11 -4 35% 76.28 0.0
06 10:15 N 20 0.00 Fair CLR 11 -4 35% 76.28 0.0
06 09:55 N 15 G 26 0.00 Fair CLR 10 -4 37% 8 76.25 0.0
06 09:35 N 20 0.00 Fair CLR 10 -3 40% 8 76.25 0.0
06 09:15 N 22 0.00 Fair CLR 9 -4 40% 6 76.25 0.0
06 08:55 N 24 0.00 Fair CLR 8 -3 46% 5 76.25 0.0
06 08:35 N 22 0.00 Fair CLR 7 -3 49% 4 76.23 0.0
06 08:15 N 15 0.00 Fair CLR 7 -2 53% 5 76.23 0.0
06 07:55 N 17 0.00 Fair CLR 6 -2 57% 3 76.23 0.0
06 07:35 N 17 0.00 Fair CLR 6 -2 57% 3 76.2 0.0
06 07:15 N 19 0.00 Fair CLR 5 -2 61% 2 76.17 0.0
06 06:55 N 19 0.00 Fair CLR 5 -2 61% 2 76.15 0.0
06 06:35 N 17 0.00 Fair CLR 5 -2 61% 2 76.1 0.0
06 06:15 NW 17 0.00 Fair CLR 5 -2 61% 2 76.07 0.0
06 05:55 NW 17 0.00 Fair CLR 5 -2 61% 2 76.05 0.0
06 05:35 N 13 0.00 Fair CLR 5 -2 61% 2 76.05 0.0
06 05:15 N 15 0.00 Fair CLR 5 -2 61% 2 76.02 0.0
06 04:55 N 15 0.00 Fair CLR 6 -2 57% 3 76.02 0.0
06 04:35 NW 15 0.00 Fair CLR 6 -2 57% 3 76.02 0.0
06 04:15 NW 15 0.00 Fair CLR 5 -2 61% 2 76.02 0.0
06 03:55 NW 17 0.00 Fair CLR 6 -2 57% 3 76 0.0
06 03:35 NW 17 0.00 Fair CLR 6 -2 57% 3 75.97 0.0
06 03:15 NW 15 0.00 Fair CLR 7 -2 53% 5 75.97 0.0
06 02:55 NW 15 0.00 Fair CLR 6 -1 61% 3 75.97 0.0
06 02:35 NW 13 0.00 Fair CLR 6 -1 61% 4 76 0.0
06 02:15 NW 11 0.00 Fair CLR 6 -1 61% 4 75.97 0.0
06 01:55 NW 7 0.00 Fair CLR 6 -1 61% 5 75.95 0.0
06 01:35 NW 9 0.00 Fair CLR 7 -2 53% 5 75.97 0.0
06 01:15 N 9 0.00 Fair CLR 7 -1 57% 5 75.95 0.0
06 00:55 N 15 0.00 Fair CLR 7 -2 53% 5 75.92 0.0
06 00:35 N 13 0.00 Fair CLR 8 -2 50% 6 75.92 0.0
06 00:15 N 15 0.00 Fair CLR 9 -2 46% 7 75.9 0.0
05 23:55 N 15 0.00 Fair CLR 9 -2 46% 7 75.9 0.0
05 23:35 N 13 0.00 Fair CLR 9 -2 46% 7 75.9 0.0
05 23:15 N 17 0.00 Fair CLR 10 -2 43% 8 75.84 0.0
05 22:55 N 17 0.00 Fair CLR 11 -3 38% 75.87 0.0
05 22:35 N 22 0.00 A Few Clouds FEW110 11 -3 38% 75.82 0.0
05 22:15 N 19 G 28 0.00 A Few Clouds FEW120 12 -2 38% 75.84 0.0
05 21:55 NW 13 0.00 Fair CLR 11 -1 44% 75.82 0.0
05 21:35 NW 9 0.00 Fair CLR 11 0 47% 75.82 0.0
05 21:15 W 9 0.00 Fair CLR 11 0 47% 75.79 0.0
05 20:55 W 11 0.00 Fair CLR 11 1 50% 75.77 0.0
05 20:35 NW 9 0.00 Fair CLR 12 1 47% 75.74 0.0
05 20:15 W 9 0.00 Fair CLR 13 0 41% 75.74 0.0
05 19:55 W 11 0.00 Fair CLR 13 0 41% 75.72 0.0
05 19:35 W 13 0.00 Fair CLR 13 0 41% 75.72 0.0
05 19:15 W 13 0.00 Fair CLR 14 0 39% 75.69 0.0
05 18:55 W 11 0.00 Fair CLR 14 0 39% 75.69 0.0
05 18:35 W 9 G 20 0.00 Fair CLR 14 0 39% 75.69 0.0
05 18:15 W 17 0.00 Fair CLR 15 0 36% 75.69 0.0
05 17:55 W 17 G 26 0.00 Fair CLR 15 0 36% 75.69 0.0
05 17:35 W 17 0.00 Fair CLR 14 -1 36% 75.69 0.0
05 17:15 W 17 0.00 Fair CLR 14 -1 36% 75.72 0.0
05 16:55 W 19 0.00 Fair CLR 14 -1 36% 75.72 0.0
05 16:35 W 19 0.00 Fair CLR 14 -1 36% 75.74 0.0
05 16:15 W 13 G 26 0.00 Fair CLR 14 -1 36% 75.77 0.0
05 15:55 W 15 0.00 Fair CLR 13 -1 38% 75.77 0.0
05 15:35 W 17 0.00 Fair CLR 13 -1 38% 75.79 0.0
05 15:15 NW 15 0.00 Fair CLR 13 -1 38% 75.79 0.0
05 14:55 W 15 0.00 Fair CLR 13 -1 38% 75.82 0.0
05 14:35 W 13 G 26 0.00 Fair CLR 13 -1 38% 75.82 0.0
05 14:15 NW 17 G 28 0.00 Fair CLR 13 -1 38% 75.84 0.0
05 13:55 NW 19 G 30 0.00 Fair CLR 13 -1 38% 75.84 0.0
05 13:35 NW 20 0.00 Fair CLR 13 -1 38% 75.84 0.0
05 13:15 NW 13 G 24 0.00 Fair CLR 13 -1 38% 75.84 0.0
05 12:55 NW 15 0.00 Fair CLR 13 -1 38% 75.87 0.0
05 12:35 W 20 0.00 Fair CLR 13 -1 38% 75.87 0.0
05 12:15 NW 9 0.00 Fair CLR 12 -1 41% 75.87 0.0
05 11:55 NW 19 0.00 Fair CLR 13 -1 38% 75.87 0.0
05 11:35 Vrbl 11 G 24 0.00 Fair CLR 12 -1 41% 75.87 0.0
05 11:15 NW 11 0.00 Fair CLR 12 -1 41% 75.87 0.0
05 10:55 N 9 0.00 Fair CLR 12 -1 41% 75.84 0.0
05 10:35 NW 13 0.00 Fair CLR 11 -1 44% 75.84 0.0
05 10:15 NW 13 G 22 0.00 Fair CLR 11 0 47% 75.82 0.0
05 09:55 NW 9 0.00 Fair CLR 11 0 47% 75.79 0.0
05 09:35 NW 11 0.00 Fair CLR 11 0 47% 75.82 0.0
05 09:15 NW 7 0.00 Fair CLR 10 0 50% 9 75.77 0.0
05 08:55 Calm 0.00 Fair CLR 10 1 54% 75.77 0.0
05 08:15 NW 7 0.00 Fair CLR 9 3 66% 8 75.74 0.0
05 07:55 Calm 0.00 NULL NULL 8 7 93% 75.79 0.0
05 07:35 W 6 0.00 NULL NULL 8 7 93% 75.82 0.0
05 07:15 Calm 0.00 NULL NULL 8 7 93% 75.82 0.0
05 06:55 SW 6 0.00 NULL NULL 7 7 100% 75.82 0.0
05 06:35 SW 7 0.00 NULL NULL 7 7 100% 6 75.82 0.0
05 06:15 SW 7 0.00 NULL NULL 7 7 100% 6 75.79 0.0
05 05:55 S 9 0.00 NULL NULL 7 7 100% 5 75.77 0.0
05 05:35 SW 6 0.00 Light Rain FEW049 SCT060 OVC090 8 5 82% 75.74 0.0
05 04:55 NE 11 0.00 Overcast BKN080 OVC100 9 1 58% 8 75.72 0.0
05 04:35 N 15 G 31 0.00 Light Rain BKN080 OVC090 9 0 54% 7 75.72 0.0
05 04:15 N 30 G 48 0.00 Overcast BKN095 OVC120 10 -1 47% 7 75.59 0.0
05 03:55 N 26 G 39 0.00 Overcast BKN095 OVC110 10 -2 43% 7 75.62 0.0
05 03:35 N 26 0.00 Overcast BKN095 OVC110 10 -2 43% 7 75.59 0.0
05 03:15 N 17 0.00 Overcast FEW070 OVC095 11 -1 44% 75.64 0.0
05 02:55 N 15 0.00 Overcast FEW075 OVC095 11 -1 44% 75.64 0.0
05 02:35 N 17 G 28 0.00 Mostly Cloudy BKN100 10 -1 47% 8 75.57 0.0
05 02:15 N 13 0.00 Partly Cloudy SCT100 11 -1 44% 75.62 0.0
05 01:55 N 19 G 31 0.00 Fair CLR 11 -1 44% 75.59 0.0
05 01:35 N 20 0.00 Fair CLR 11 0 47% 75.46 0.0
05 01:15 N 15 G 28 0.00 Fair CLR 11 0 47% 75.46 0.0
05 00:55 NW 24 G 37 0.00 Fair CLR 12 0 44% 75.44 0.0
05 00:35 NW 26 0.00 Fair CLR 12 0 44% 75.39 0.0
05 00:15 NW 28 0.00 Fair CLR 12 0 44% 75.36 0.0
04 23:55 NW 22 0.00 Fair CLR 12 0 44% 75.36 0.0
04 23:35 NW 20 G 30 0.00 Fair CLR 13 0 41% 75.39 0.0
04 23:15 NW 22 0.00 Fair CLR 13 0 41% 75.39 0.0
04 22:55 N 22 G 31 0.00 Fair CLR 14 -1 36% 75.36 0.0
04 22:15 N 20 0.00 Fair CLR 15 0 36% 75.36 0.0
04 21:55 N 28 0.00 Fair CLR 16 0 34% 75.36 0.0
04 21:35 N 24 0.00 Fair CLR 16 1 36% 75.29 0.0
04 21:15 N 22 0.00 Fair CLR 17 2 37% 75.26 0.0
04 20:55 N 20 0.00 Fair CLR 17 3 39% 75.21 0.0
04 20:35 N 24 G 33 0.00 Fair CLR 18 2 34% 75.16 0.0
04 20:15 N 20 G 37 0.00 Fair CLR 19 3 35% 75.11 0.0
04 19:55 N 33 0.00 Fair and Breezy CLR 21 3 31% 75.06 0.0
04 18:55 N 37 G 50 0.00 Fair and Breezy CLR 24 8 36% 25 74.93 0.0
04 18:35 NW 19 G 37 0.00 Fair CLR 24 12 47% 25 74.9 0.0
04 18:15 SW 19 G 30 0.00 A Few Clouds FEW090 23 12 50% 74.88 0.0
04 17:55 W 7 G 20 0.00 Partly Cloudy SCT090 21 13 60% 74.9 0.0
04 17:35 E 7 0.00 A Few Clouds FEW085 20 14 69% 74.9 0.0
04 17:15 Calm 0.00 A Few Clouds FEW090 21 12 57% 74.93 0.0
04 16:55 SW 9 G 24 0.00 A Few Clouds FEW095 20 11 56% 74.96 0.0 0.03
04 16:35 W 20 G 44 0.00 Light Rain FEW095 21 12 57% 74.96 0.0
04 16:15 N 11 0.00 Fair CLR 23 10 44% 74.9 0.0
04 15:55 W 22 0.00 A Few Clouds FEW090 26 8 32% 26 74.93 0.0
04 15:35 Vrbl 7 G 35 0.24 Sky Obscured with Haze VV000 26 8 32% 26 74.93 0.0
04 15:15 SW 19 G 35 0.24 Sky Obscured with Haze VV000 29 7 25% 28 74.93 0.0
04 14:55 W 20 G 31 0.00 Fair CLR 27 7 28% 26 74.98 0.0
04 14:35 W 19 G 37 2.01 Fair with Haze CLR 28 7 26% 27 74.98 0.0
04 13:55 SW 30 2.41 Fair with Haze CLR 29 8 27% 28 74.98 0.0
04 13:35 SW 24 G 33 0.24 Sky Obscured with Haze VV000 28 8 28% 27 75.01 0.0
04 13:15 SW 30 1.21 Sky Obscured with Haze VV005 28 9 30% 27 75.01 0.0
04 12:55 SW 20 G 31 0.40 Sky Obscured with Haze VV002 27 10 34% 27 75.01 0.0
04 12:35 SW 24 0.40 Sky Obscured with Haze VV002 27 10 34% 27 75.01 0.0
04 12:15 SW 28 G 41 1.21 Sky Obscured with Haze VV005 26 10 37% 26 75.01 0.0
04 11:35 SW 30 0.24 Sky Obscured with Haze VV000 25 10 39% 26 75.06 0.0
04 11:15 SW 28 0.40 Sky Obscured with Haze VV002 25 10 39% 26 75.06 0.0
04 10:55 SW 26 G 35 0.40 Sky Obscured with Haze VV002 24 10 41% 25 75.06 0.0
04 10:35 SW 30 3.22 Fair with Haze CLR 23 10 44% 75.08 0.0
04 10:15 SW 26 G 37 1.61 Fair with Haze CLR 23 10 44% 75.08 0.0
04 09:55 SW 30 0.80 Sky Obscured with Haze VV005 22 9 44% 75.11 0.0
04 09:35 SW 22 1.61 Fair with Haze CLR 21 10 50% 75.11 0.0
04 09:15 S 20 0.40 Sky Obscured with Haze VV002 20 9 49% 75.13 0.0
04 08:55 S 17 0.80 Sky Obscured with Haze VV005 18 8 52% 75.13 0.0
04 08:35 S 17 0.80 Sky Obscured with Haze VV005 17 8 56% 75.16 0.0
04 08:15 S 19 0.80 Sky Obscured with Haze VV005 16 8 59% 75.18 0.0
04 07:55 S 17 0.80 Sky Obscured with Haze VV005 15 7 59% 75.21 0.0
04 07:35 S 17 0.40 Sky Obscured with Haze VV002 13 7 67% 75.21 0.0
04 07:15 S 15 3.22 Fair with Haze CLR 11 7 77% 75.23 0.0
04 06:55 S 15 2.01 Fog/Mist CLR 9 9 100% 7 75.23 0.0
04 06:35 S 13 0.40 Fog VV002 8 8 100% 6 75.23 0.0
04 06:15 S 13 2.82 Fog/Mist CLR 7 7 100% 5 75.23 0.0
04 05:55 S 15 1.21 Fog/Mist VV005 7 6 93% 5 75.23 0.0
04 05:35 S 9 1.21 Sky Obscured with Haze VV005 9 6 82% 8 75.26 0.0
04 05:15 SW 9 4.02 Fog/Mist CLR 8 7 93% 7 75.26 0.0
04 04:55 S 9 2.82 Fog/Mist CLR 7 7 100% 5 75.29 0.0
04 04:35 S 11 2.82 Fog/Mist CLR 8 7 93% 6 75.31 0.0
04 04:15 SW 9 1.61 Fog/Mist CLR 8 5 82% 7 75.31 0.0
04 03:55 SW 9 1.61 Fair with Haze CLR 9 5 76% 8 75.34 0.0
04 03:35 SW 7 2.41 Fair with Haze CLR 10 5 71% 9 75.34 0.0
04 03:15 Calm 4.83 Fair with Haze CLR 9 5 76% 75.36 0.0
04 02:55 SW 9 4.02 Fair with Haze CLR 10 4 67% 9 75.36 0.0
04 02:35 SW 11 2.41 Fair with Haze CLR 9 4 71% 8 75.39 0.0
04 02:15 SW 11 2.41 Fair with Haze CLR 10 4 67% 9 75.39 0.0
04 01:55 SW 13 1.61 Fair with Haze CLR 9 5 76% 7 75.41 0.0
04 01:35 SW 11 4.83 Fog/Mist CLR 7 5 87% 5 75.44 0.0
04 01:15 SW 9 2.41 Fair with Haze CLR 9 4 71% 8 75.44 0.0
04 00:55 W 7 3.22 Fair with Haze CLR 11 4 62% 75.44 0.0
04 00:35 W 6 2.41 Fair with Haze CLR 12 3 54% 75.46 0.0
04 00:15 W 7 2.01 Fair with Haze CLR 12 3 54% 75.49 0.0
03 23:55 W 9 1.21 Sky Obscured with Haze VV005 13 4 55% 75.49 0.0
03 23:35 SW 13 1.21 Sky Obscured with Haze VV005 12 4 58% 75.51 0.0
03 23:15 SW 13 2.01 Fair with Haze CLR 13 3 51% 75.51 0.0
03 22:55 SW 9 2.82 Fair with Haze CLR 14 3 48% 75.51 0.0
03 22:35 W 9 2.01 Fair with Haze CLR 14 3 48% 75.54 0.0
03 22:15 SW 13 0.80 Sky Obscured with Haze VV005 14 3 48% 75.54 0.0
03 21:55 SW 13 4.83 Fair with Haze CLR 15 3 45% 75.54 0.0
03 21:35 SW 15 1.21 Sky Obscured with Haze VV005 16 3 42% 75.54 0.0
03 21:15 SW 13 4.02 Fair with Haze CLR 16 3 42% 75.51 0.0
03 20:55 SW 17 0.80 Sky Obscured with Haze VV005 17 3 39% 75.51 0.0
03 20:35 SW 13 4.02 Fair with Haze CLR 17 2 37% 75.51 0.0
03 20:15 SW 15 3.22 Fair with Haze CLR 18 1 32% 75.49 0.0
03 19:55 W 13 0.40 Sky Obscured with Haze VV002 20 1 28% 75.49 0.0
03 19:35 W 15 1.21 Sky Obscured with Haze VV005 22 0 23% 75.49 0.0
03 19:15 W 19 G 28 1.61 Fair with Haze CLR 22 0 23% 75.49 0.0
03 18:55 W 22 0.40 Sky Obscured with Haze VV002 23 0 22% 75.49 0.0
03 18:35 W 24 0.40 Sky Obscured with Haze VV002 23 2 25% 75.49 0.0
03 18:15 W 20 G 35 2.01 Fair with Haze CLR 23 1 23% 75.49 0.0
03 17:35 SW 30 G 41 0.80 Sky Obscured with Haze VV005 24 4 27% 25 75.46 0.0
03 17:15 W 30 1.21 Sky Obscured with Haze VV005 23 5 31% 75.46 0.0
03 16:55 SW 26 G 39 0.80 Sky Obscured with Haze VV005 22 6 36% 75.49 0.0
03 16:35 SW 33 1.21 Sky Obscured with Haze and Breezy VV005 22 6 36% 75.49 0.0
03 16:15 W 30 G 46 0.40 Sky Obscured with Haze VV002 22 6 36% 75.51 0.0
03 15:55 SW 30 G 44 0.80 Sky Obscured with Haze VV005 21 6 38% 75.54 0.0
03 15:35 W 28 G 46 2.01 Fair with Haze CLR 22 6 36% 75.57 0.0
03 15:15 SW 37 G 46 0.40 Sky Obscured with Haze and Breezy VV002 21 6 38% 75.57 0.0
03 14:55 SW 31 0.80 Sky Obscured with Haze VV005 21 7 40% 75.57 0.0
03 14:35 SW 37 2.01 Fair with Haze and Breezy CLR 21 6 38% 75.59 0.0
03 14:15 W 28 G 37 0.80 Sky Obscured with Haze VV005 21 6 38% 75.59 0.0
03 13:55 W 26 G 39 1.21 Sky Obscured with Haze VV005 21 6 38% 75.59 0.0
03 13:35 W 30 G 43 0.40 Sky Obscured with Haze VV002 21 5 35% 75.64 0.0
03 13:15 W 28 G 46 0.40 Sky Obscured with Haze VV002 21 5 35% 75.64 0.0
03 12:55 W 41 0.80 Sky Obscured with Haze and Breezy VV005 20 5 38% 75.64 0.0
03 12:35 SW 37 G 50 0.80 Sky Obscured with Haze and Breezy VV005 20 5 38% 75.64 0.0
03 12:15 SW 30 G 52 0.80 Sky Obscured with Haze VV005 19 5 40% 75.67 0.0
03 11:55 SW 41 G 56 0.40 Sky Obscured with Haze and Breezy VV002 19 4 37% 75.67 0.0
03 11:35 SW 41 0.80 Sky Obscured with Haze and Breezy VV005 19 4 37% 75.67 0.0
Date Time (cdt) Wind (kph) Vis. (km) Weather Sky Cond. Air Dwpt Max. Min. Relative Humidity Wind Chill (°C) Heat Index (°C) altimeter (cm) sea level (mb) 1 hr 3 hr 6 hr
6 hour
Temperature (ºC) Pressure Precipitation (cm)